Time;durP1;ratioP1;P1;durP2;ratioP2;P2;SDS_P1;SDS_P2;PMS_P1;PMS_P2;Temp;Humidity;BMP_temperature;BMP_pressure;BME280_temperature;BME280_humidity;BME280_pressure;Samples;Min_cycle;Max_cycle;Signal;HPM_P1;HPM_P2
2023/04/23 00:00:16;;;;;;;85.88;33.10;;;;;;;;;;5037055;28;20579;-75
2023/04/23 00:02:43;;;;;;;81.35;32.17;;;;;;;;;;5043578;28;20503;-76
2023/04/23 00:05:11;;;;;;;84.97;33.50;;;;;;;;;;5043808;28;20058;-76
2023/04/23 00:07:38;;;;;;;83.82;33.40;;;;;;;;;;5036592;28;20546;-76
2023/04/23 00:10:07;;;;;;;87.28;34.00;;;;;;;;;;5012960;28;20484;-76
2023/04/23 00:12:34;;;;;;;84.60;33.20;;;;;;;;;;5025048;28;20630;-76
2023/04/23 00:15:01;;;;;;;91.07;34.90;;;;;;;;;;5021639;28;20050;-76
2023/04/23 00:17:27;;;;;;;84.55;34.05;;;;;;;;;;5029056;28;20194;-76
2023/04/23 00:19:54;;;;;;;85.43;33.75;;;;;;;;;;5040194;28;20590;-76
2023/04/23 00:22:20;;;;;;;81.40;32.13;;;;;;;;;;5039453;28;20050;-76
2023/04/23 00:24:47;;;;;;;105.85;33.42;;;;;;;;;;5022122;28;20112;-76
2023/04/23 00:27:13;;;;;;;93.80;32.60;;;;;;;;;;5009450;28;20050;-76
2023/04/23 00:29:40;;;;;;;85.05;32.67;;;;;;;;;;5010201;28;20064;-76
2023/04/23 00:32:06;;;;;;;93.53;34.95;;;;;;;;;;5022316;28;20349;-76
2023/04/23 00:34:33;;;;;;;84.63;32.83;;;;;;;;;;5041885;28;20100;-76
2023/04/23 00:36:59;;;;;;;87.35;32.38;;;;;;;;;;5042114;28;20064;-76
2023/04/23 00:39:25;;;;;;;87.10;33.63;;;;;;;;;;5029985;28;20525;-76
2023/04/23 00:41:52;;;;;;;88.55;32.80;;;;;;;;;;5023496;28;20626;-76
2023/04/23 00:44:18;;;;;;;98.43;32.88;;;;;;;;;;5017054;28;20093;-76
2023/04/23 00:46:45;;;;;;;81.22;31.50;;;;;;;;;;5023713;28;20085;-76
2023/04/23 00:49:12;;;;;;;85.07;33.53;;;;;;;;;;5015225;28;20058;-76
2023/04/23 00:51:38;;;;;;;76.53;32.25;;;;;;;;;;5030525;28;20061;-76
2023/04/23 00:54:06;;;;;;;75.35;31.75;;;;;;;;;;5041696;28;20128;-75
2023/04/23 00:56:32;;;;;;;81.88;31.95;;;;;;;;;;5033330;28;22167;-76
2023/04/23 00:58:59;;;;;;;81.65;32.90;;;;;;;;;;5023880;28;20080;-76
2023/04/23 01:01:25;;;;;;;81.35;32.35;;;;;;;;;;5024820;28;20081;-76
2023/04/23 01:03:52;;;;;;;81.20;33.13;;;;;;;;;;5022221;28;20062;-76
2023/04/23 01:06:20;;;;;;;78.75;32.53;;;;;;;;;;5021939;28;20941;-76
2023/04/23 01:08:46;;;;;;;93.15;33.08;;;;;;;;;;5023033;28;20398;-76
2023/04/23 01:11:13;;;;;;;78.15;31.63;;;;;;;;;;5021919;28;20925;-76
2023/04/23 01:13:40;;;;;;;89.57;34.38;;;;;;;;;;5019509;28;20136;-76
2023/04/23 01:16:07;;;;;;;97.00;34.75;;;;;;;;;;5028653;28;20065;-76
2023/04/23 01:18:34;;;;;;;94.85;35.08;;;;;;;;;;5022517;28;20057;-76
2023/04/23 01:21:00;;;;;;;93.43;35.60;;;;;;;;;;5023611;28;20057;-76
2023/04/23 01:23:27;;;;;;;97.85;34.30;;;;;;;;;;5023103;28;20136;-76
2023/04/23 01:25:53;;;;;;;90.00;33.67;;;;;;;;;;5030103;28;20058;-76
2023/04/23 01:28:19;;;;;;;98.50;35.80;;;;;;;;;;5034632;28;20535;-76
2023/04/23 01:30:46;;;;;;;100.22;35.58;;;;;;;;;;5040829;28;20905;-75
2023/04/23 01:33:13;;;;;;;107.75;35.30;;;;;;;;;;5038426;28;20881;-76
2023/04/23 01:35:40;;;;;;;91.97;34.08;;;;;;;;;;5005081;28;20061;-76
2023/04/23 01:38:09;;;;;;;90.93;33.40;;;;;;;;;;5014453;28;20604;-76
2023/04/23 01:40:36;;;;;;;98.07;36.38;;;;;;;;;;5034036;28;20080;-76
2023/04/23 01:43:02;;;;;;;99.07;35.03;;;;;;;;;;5035314;28;20060;-76
2023/04/23 01:45:30;;;;;;;99.20;35.60;;;;;;;;;;5026145;28;20046;-76
2023/04/23 01:47:56;;;;;;;97.78;35.30;;;;;;;;;;5020489;28;20060;-76
2023/04/23 01:50:25;;;;;;;89.72;34.17;;;;;;;;;;5022679;28;20521;-76
2023/04/23 01:52:51;;;;;;;82.25;31.92;;;;;;;;;;5019077;28;20128;-76
2023/04/23 01:55:18;;;;;;;89.78;33.63;;;;;;;;;;5021302;28;20062;-76
2023/04/23 01:57:45;;;;;;;98.80;33.30;;;;;;;;;;5034510;28;20149;-76
2023/04/23 02:00:12;;;;;;;81.47;31.88;;;;;;;;;;5043091;28;20056;-76
2023/04/23 02:02:39;;;;;;;85.50;32.50;;;;;;;;;;5033398;28;20869;-76
2023/04/23 02:05:13;;;;;;;87.55;33.40;;;;;;;;;;5022982;28;20161;-76
2023/04/23 02:07:40;;;;;;;87.30;32.58;;;;;;;;;;5036502;28;20117;-76
2023/04/23 02:10:07;;;;;;;82.55;31.67;;;;;;;;;;5014133;28;20105;-77
2023/04/23 02:12:34;;;;;;;86.10;33.22;;;;;;;;;;5030038;28;20471;-76
2023/04/23 02:15:01;;;;;;;83.13;30.92;;;;;;;;;;5054870;28;20057;-76
2023/04/23 02:17:28;;;;;;;90.45;33.53;;;;;;;;;;5040127;28;20133;-76
2023/04/23 02:19:54;;;;;;;83.45;31.45;;;;;;;;;;5028984;28;20512;-76
2023/04/23 02:22:23;;;;;;;80.45;32.03;;;;;;;;;;5021490;28;20058;-76
2023/04/23 02:24:51;;;;;;;87.65;32.55;;;;;;;;;;5016576;28;20161;-76
2023/04/23 02:27:18;;;;;;;85.05;31.98;;;;;;;;;;5042989;28;20085;-76
2023/04/23 02:29:45;;;;;;;79.43;31.65;;;;;;;;;;5052676;28;20064;-76
2023/04/23 02:32:11;;;;;;;89.03;32.33;;;;;;;;;;5032004;28;20089;-76
2023/04/23 02:34:37;;;;;;;82.20;33.85;;;;;;;;;;5039867;28;20062;-76
2023/04/23 02:37:04;;;;;;;83.72;31.27;;;;;;;;;;5043465;28;20635;-76
2023/04/23 02:39:31;;;;;;;82.53;31.95;;;;;;;;;;5012379;28;20101;-76
2023/04/23 02:41:58;;;;;;;74.78;30.08;;;;;;;;;;5007649;28;20065;-76
2023/04/23 02:44:24;;;;;;;75.15;30.02;;;;;;;;;;5025955;28;20053;-76
2023/04/23 02:46:51;;;;;;;80.75;30.63;;;;;;;;;;5026827;28;20140;-76
2023/04/23 02:49:20;;;;;;;94.07;32.05;;;;;;;;;;5024066;28;20054;-76
2023/04/23 02:51:47;;;;;;;77.45;31.15;;;;;;;;;;5026830;28;20070;-76
2023/04/23 02:54:13;;;;;;;76.70;31.30;;;;;;;;;;5026865;28;20061;-76
2023/04/23 02:56:40;;;;;;;73.85;28.63;;;;;;;;;;5024131;28;20160;-76
2023/04/23 02:59:07;;;;;;;73.28;28.60;;;;;;;;;;5025019;28;20057;-76
2023/04/23 03:01:33;;;;;;;73.38;28.25;;;;;;;;;;5026918;28;20053;-76
2023/04/23 03:04:00;;;;;;;68.70;27.40;;;;;;;;;;5026711;28;20523;-76
2023/04/23 03:06:26;;;;;;;63.97;26.48;;;;;;;;;;5041570;28;20061;-76
2023/04/23 03:08:53;;;;;;;68.15;28.42;;;;;;;;;;5031639;28;20054;-76
2023/04/23 03:11:20;;;;;;;73.53;27.77;;;;;;;;;;5026866;28;20054;-76
2023/04/23 03:13:46;;;;;;;68.15;26.92;;;;;;;;;;5026078;28;20155;-77
2023/04/23 03:16:12;;;;;;;68.20;27.23;;;;;;;;;;5018295;28;20059;-76
2023/04/23 03:18:39;;;;;;;61.38;24.80;;;;;;;;;;5010744;28;20589;-76
2023/04/23 03:21:05;;;;;;;60.53;25.75;;;;;;;;;;5006154;28;20066;-76
2023/04/23 03:23:31;;;;;;;58.45;24.92;;;;;;;;;;5029653;28;20049;-76
2023/04/23 03:25:58;;;;;;;61.50;26.13;;;;;;;;;;5041373;28;20066;-76
2023/04/23 03:28:24;;;;;;;60.33;25.20;;;;;;;;;;5025498;28;20069;-76
2023/04/23 03:30:51;;;;;;;60.03;25.10;;;;;;;;;;5013855;28;20175;-76
2023/04/23 03:33:17;;;;;;;54.78;23.38;;;;;;;;;;5018153;28;20062;-76
2023/04/23 03:35:43;;;;;;;63.92;26.20;;;;;;;;;;5022651;28;20654;-76
2023/04/23 03:38:10;;;;;;;56.72;24.92;;;;;;;;;;5025025;28;20057;-77
2023/04/23 03:40:36;;;;;;;57.85;24.45;;;;;;;;;;5024254;28;21043;-76
2023/04/23 03:43:02;;;;;;;56.08;23.95;;;;;;;;;;5045291;28;20050;-76
2023/04/23 03:45:29;;;;;;;60.58;25.90;;;;;;;;;;5040449;28;20076;-77
2023/04/23 03:47:56;;;;;;;56.00;23.35;;;;;;;;;;5055062;28;20742;-77
2023/04/23 03:50:22;;;;;;;56.92;24.20;;;;;;;;;;5016728;28;20050;-77
2023/04/23 03:52:51;;;;;;;57.50;25.27;;;;;;;;;;5005811;28;20058;-77
2023/04/23 03:55:19;;;;;;;60.80;25.13;;;;;;;;;;5024570;28;20058;-77
2023/04/23 03:57:45;;;;;;;54.78;24.05;;;;;;;;;;5023180;28;20081;-77
2023/04/23 04:00:12;;;;;;;55.88;24.15;;;;;;;;;;5040862;28;20070;-77
2023/04/23 04:02:38;;;;;;;58.55;24.48;;;;;;;;;;5023580;28;20081;-77
2023/04/23 04:05:05;;;;;;;56.00;23.77;;;;;;;;;;5025064;28;20057;-77
2023/04/23 04:07:33;;;;;;;54.13;24.13;;;;;;;;;;5023429;28;20084;-77
2023/04/23 04:10:01;;;;;;;59.17;25.25;;;;;;;;;;5020971;28;20058;-77
2023/04/23 04:12:28;;;;;;;57.35;24.20;;;;;;;;;;5029236;28;20133;-76
2023/04/23 04:14:55;;;;;;;55.90;23.98;;;;;;;;;;5026376;28;20153;-77
2023/04/23 04:17:21;;;;;;;57.70;23.27;;;;;;;;;;5032501;28;20056;-77
2023/04/23 04:19:47;;;;;;;54.35;23.50;;;;;;;;;;5023665;28;20922;-76
2023/04/23 04:22:14;;;;;;;54.58;24.35;;;;;;;;;;5021106;28;20051;-77
2023/04/23 04:24:41;;;;;;;52.25;23.83;;;;;;;;;;5041066;28;20524;-77
2023/04/23 04:27:08;;;;;;;54.55;23.50;;;;;;;;;;5023093;28;20572;-77
2023/04/23 04:29:34;;;;;;;52.13;23.13;;;;;;;;;;5025917;28;20057;-77
2023/04/23 04:32:04;;;;;;;50.00;22.10;;;;;;;;;;5026261;28;20057;-76
2023/04/23 04:34:30;;;;;;;55.50;23.60;;;;;;;;;;5042808;28;20061;-77
2023/04/23 04:36:56;;;;;;;48.22;22.55;;;;;;;;;;5040007;28;20057;-77
2023/04/23 04:39:23;;;;;;;49.42;21.90;;;;;;;;;;5027411;28;20064;-76
2023/04/23 04:41:49;;;;;;;56.45;24.05;;;;;;;;;;5023862;28;20061;-77
2023/04/23 04:44:16;;;;;;;53.30;22.67;;;;;;;;;;5036611;28;20421;-76
2023/04/23 04:46:42;;;;;;;50.78;21.83;;;;;;;;;;5004356;28;20073;-77
2023/04/23 04:49:10;;;;;;;51.53;21.65;;;;;;;;;;5027255;28;20132;-77
2023/04/23 04:51:36;;;;;;;47.05;21.88;;;;;;;;;;5043875;28;20519;-77
2023/04/23 04:54:03;;;;;;;52.58;23.30;;;;;;;;;;5043755;28;20072;-77
2023/04/23 04:56:30;;;;;;;51.05;22.88;;;;;;;;;;5036305;28;20053;-76
2023/04/23 04:58:56;;;;;;;55.75;23.60;;;;;;;;;;5010294;28;20061;-76
2023/04/23 05:01:24;;;;;;;53.60;22.50;;;;;;;;;;5015286;28;20064;-77
2023/04/23 05:03:51;;;;;;;48.10;21.70;;;;;;;;;;5018287;28;21170;-77
2023/04/23 05:06:18;;;;;;;47.67;21.02;;;;;;;;;;5043464;28;20057;-77
2023/04/23 05:08:47;;;;;;;53.05;22.85;;;;;;;;;;5032334;28;20093;-77
2023/04/23 05:11:14;;;;;;;51.25;23.05;;;;;;;;;;5022993;28;20097;-76
2023/04/23 05:13:40;;;;;;;51.30;21.70;;;;;;;;;;5020272;28;20064;-77
2023/04/23 05:16:07;;;;;;;48.22;21.80;;;;;;;;;;5040661;28;20537;-77
2023/04/23 05:18:33;;;;;;;45.85;21.92;;;;;;;;;;5027017;28;20594;-77
2023/04/23 05:20:59;;;;;;;44.03;21.05;;;;;;;;;;5032254;28;20065;-77
2023/04/23 05:23:26;;;;;;;43.25;20.67;;;;;;;;;;5028449;28;20045;-77
2023/04/23 05:25:54;;;;;;;49.05;22.23;;;;;;;;;;5037472;28;20054;-77
2023/04/23 05:28:21;;;;;;;46.90;22.25;;;;;;;;;;5042000;28;20053;-77
2023/04/23 05:30:48;;;;;;;48.75;21.27;;;;;;;;;;5015865;28;20054;-77
2023/04/23 05:33:15;;;;;;;43.47;20.67;;;;;;;;;;5009569;28;20503;-77
2023/04/23 05:35:41;;;;;;;45.72;21.42;;;;;;;;;;5020490;28;20148;-76
2023/04/23 05:38:08;;;;;;;41.25;20.50;;;;;;;;;;5031885;28;20053;-76
2023/04/23 05:40:34;;;;;;;46.42;21.33;;;;;;;;;;5042891;28;20492;-76
2023/04/23 05:43:00;;;;;;;43.42;22.05;;;;;;;;;;5033265;28;20145;-76
2023/04/23 05:45:27;;;;;;;46.28;21.10;;;;;;;;;;5023137;28;20062;-76
2023/04/23 05:47:53;;;;;;;48.05;22.23;;;;;;;;;;5028528;28;20064;-76
2023/04/23 05:50:20;;;;;;;45.42;21.35;;;;;;;;;;5016557;28;20980;-76
2023/04/23 05:52:46;;;;;;;42.92;20.98;;;;;;;;;;5035689;28;20050;-76
2023/04/23 05:55:17;;;;;;;47.92;21.52;;;;;;;;;;5036447;28;20957;-76
2023/04/23 05:57:43;;;;;;;48.53;21.15;;;;;;;;;;5035370;28;20141;-76
2023/04/23 06:00:12;;;;;;;48.75;22.60;;;;;;;;;;5021934;28;20061;-77
2023/04/23 06:02:39;;;;;;;41.97;21.20;;;;;;;;;;5034375;28;20054;-76
2023/04/23 06:05:06;;;;;;;43.10;21.33;;;;;;;;;;5024253;28;20513;-75
2023/04/23 06:07:33;;;;;;;42.25;22.38;;;;;;;;;;5008266;28;20058;-76
2023/04/23 06:09:59;;;;;;;40.63;20.23;;;;;;;;;;5008216;28;20116;-77
2023/04/23 06:12:26;;;;;;;38.33;20.10;;;;;;;;;;5019798;28;20062;-76
2023/04/23 06:14:52;;;;;;;38.17;19.42;;;;;;;;;;5035137;28;20148;-76
2023/04/23 06:17:19;;;;;;;40.15;20.27;;;;;;;;;;5023746;28;20056;-76
2023/04/23 06:19:45;;;;;;;38.67;19.95;;;;;;;;;;5041839;28;20539;-76
2023/04/23 06:22:11;;;;;;;32.75;17.85;;;;;;;;;;5026495;28;20525;-76
2023/04/23 06:24:38;;;;;;;33.88;18.30;;;;;;;;;;5026122;28;20053;-76
2023/04/23 06:27:04;;;;;;;32.25;18.42;;;;;;;;;;5024322;28;20069;-76
2023/04/23 06:29:31;;;;;;;37.78;18.77;;;;;;;;;;5018647;28;20184;-77
2023/04/23 06:32:00;;;;;;;33.67;18.02;;;;;;;;;;5028190;28;20062;-77
2023/04/23 06:34:27;;;;;;;32.65;17.83;;;;;;;;;;5036007;28;20061;-76
2023/04/23 06:36:53;;;;;;;32.65;16.88;;;;;;;;;;5024743;28;20065;-77
2023/04/23 06:39:20;;;;;;;29.17;16.55;;;;;;;;;;5026256;28;20057;-77
2023/04/23 06:41:46;;;;;;;28.98;17.05;;;;;;;;;;5009684;28;20085;-78
2023/04/23 06:44:13;;;;;;;28.95;16.15;;;;;;;;;;5027586;28;20528;-78
2023/04/23 06:46:39;;;;;;;25.42;15.07;;;;;;;;;;5026841;28;20057;-78
2023/04/23 06:49:05;;;;;;;26.40;15.65;;;;;;;;;;5038201;28;20100;-78
2023/04/23 06:51:33;;;;;;;24.80;13.68;;;;;;;;;;5027869;28;20903;-78
2023/04/23 06:53:59;;;;;;;23.75;13.95;;;;;;;;;;5033993;28;20517;-77
2023/04/23 06:56:26;;;;;;;20.88;12.65;;;;;;;;;;5038390;28;20583;-78
2023/04/23 06:58:52;;;;;;;20.73;12.68;;;;;;;;;;5022804;28;20128;-77
2023/04/23 07:01:19;;;;;;;19.98;12.05;;;;;;;;;;5038780;28;20053;-77
2023/04/23 07:03:47;;;;;;;19.20;12.07;;;;;;;;;;5018954;28;20062;-77
2023/04/23 07:06:14;;;;;;;18.52;11.57;;;;;;;;;;5027131;28;20108;-78
2023/04/23 07:08:42;;;;;;;19.00;12.13;;;;;;;;;;5032615;28;20065;-77
2023/04/23 07:11:09;;;;;;;17.50;11.68;;;;;;;;;;5016018;28;20831;-77
2023/04/23 07:13:36;;;;;;;17.88;10.75;;;;;;;;;;5019938;28;20062;-84
2023/04/23 07:16:03;;;;;;;20.02;11.90;;;;;;;;;;5028106;28;20139;-77
2023/04/23 07:18:29;;;;;;;17.25;10.68;;;;;;;;;;5045687;28;20061;-77
2023/04/23 07:20:55;;;;;;;19.08;10.45;;;;;;;;;;5014099;28;20532;-78
2023/04/23 07:23:22;;;;;;;16.83;10.13;;;;;;;;;;5012011;28;20586;-77
2023/04/23 07:25:48;;;;;;;17.60;10.48;;;;;;;;;;5012829;28;20504;-77
2023/04/23 07:28:14;;;;;;;16.20;9.73;;;;;;;;;;5010894;28;20050;-77
2023/04/23 07:30:41;;;;;;;15.43;9.68;;;;;;;;;;5025097;28;20061;-77
2023/04/23 07:33:07;;;;;;;13.70;8.77;;;;;;;;;;5013959;28;20547;-77
2023/04/23 07:35:33;;;;;;;13.90;8.65;;;;;;;;;;5014183;28;20054;-77
2023/04/23 07:38:00;;;;;;;13.15;8.38;;;;;;;;;;5006846;28;20065;-77
2023/04/23 07:40:26;;;;;;;13.35;7.30;;;;;;;;;;5022422;28;20064;-77
2023/04/23 07:42:53;;;;;;;12.82;7.90;;;;;;;;;;5008648;28;20513;-77
2023/04/23 07:45:19;;;;;;;12.68;7.28;;;;;;;;;;5025091;28;20497;-77
2023/04/23 07:47:46;;;;;;;13.00;7.80;;;;;;;;;;5022837;28;20138;-78
2023/04/23 07:50:13;;;;;;;11.63;6.75;;;;;;;;;;5013904;28;20054;-78
2023/04/23 07:52:40;;;;;;;12.13;6.47;;;;;;;;;;5019822;28;20085;-77
2023/04/23 07:55:06;;;;;;;10.93;6.20;;;;;;;;;;5016020;28;20108;-78
2023/04/23 07:57:33;;;;;;;13.65;6.72;;;;;;;;;;5026758;28;20081;-77
2023/04/23 07:59:59;;;;;;;13.35;5.88;;;;;;;;;;5011327;28;20072;-77
2023/04/23 08:02:26;;;;;;;11.40;6.30;;;;;;;;;;5005098;28;20054;-78
2023/04/23 08:04:53;;;;;;;16.00;6.47;;;;;;;;;;5009674;28;20136;-77
2023/04/23 08:07:19;;;;;;;12.52;5.68;;;;;;;;;;5024013;28;20061;-78
2023/04/23 08:09:46;;;;;;;11.93;5.78;;;;;;;;;;5022937;28;20057;-77
2023/04/23 08:12:15;;;;;;;10.75;5.97;;;;;;;;;;5004459;28;20061;-77
2023/04/23 08:14:42;;;;;;;13.13;5.60;;;;;;;;;;5038664;28;20889;-77
2023/04/23 08:17:09;;;;;;;12.73;5.72;;;;;;;;;;5041562;28;20056;-77
2023/04/23 08:19:35;;;;;;;10.65;5.32;;;;;;;;;;5019996;28;20058;-78
2023/04/23 08:22:01;;;;;;;9.32;4.57;;;;;;;;;;5019426;28;20590;-77
2023/04/23 08:24:28;;;;;;;10.63;5.38;;;;;;;;;;5020783;28;20054;-78
2023/04/23 08:26:54;;;;;;;11.07;4.93;;;;;;;;;;5021153;28;20053;-77
2023/04/23 08:29:20;;;;;;;11.90;5.03;;;;;;;;;;5005591;28;20062;-77
2023/04/23 08:31:47;;;;;;;11.18;5.40;;;;;;;;;;5022927;28;20057;-77
2023/04/23 08:34:14;;;;;;;10.25;5.40;;;;;;;;;;5014497;28;20057;-78
2023/04/23 08:36:40;;;;;;;10.65;5.40;;;;;;;;;;5022644;28;20080;-77
2023/04/23 08:39:07;;;;;;;15.13;5.32;;;;;;;;;;5015312;28;21099;-77
2023/04/23 08:41:37;;;;;;;12.88;6.43;;;;;;;;;;5005419;28;20193;-78
2023/04/23 08:44:13;;;;;;;11.68;5.38;;;;;;;;;;5016674;28;20054;-78
2023/04/23 08:46:41;;;;;;;11.63;5.25;;;;;;;;;;5017510;28;20054;-77
2023/04/23 08:49:12;;;;;;;12.00;5.47;;;;;;;;;;5020062;28;20056;-77
2023/04/23 08:51:40;;;;;;;13.20;5.65;;;;;;;;;;5024310;28;20061;-78
2023/04/23 08:54:08;;;;;;;10.95;5.38;;;;;;;;;;5021763;28;20492;-78
2023/04/23 08:56:36;;;;;;;10.73;5.00;;;;;;;;;;5020185;28;20062;-77
2023/04/23 08:59:02;;;;;;;10.38;4.85;;;;;;;;;;5034844;28;20058;-77
2023/04/23 09:01:29;;;;;;;12.60;5.65;;;;;;;;;;5043680;28;20088;-78
2023/04/23 09:03:55;;;;;;;11.98;4.93;;;;;;;;;;5024398;28;20054;-77
2023/04/23 09:06:22;;;;;;;10.43;4.40;;;;;;;;;;5012397;28;20874;-76
2023/04/23 09:08:49;;;;;;;7.75;3.83;;;;;;;;;;5023463;28;20050;-75
2023/04/23 09:11:15;;;;;;;14.35;5.07;;;;;;;;;;5010465;28;20050;-75
2023/04/23 09:13:42;;;;;;;14.07;4.32;;;;;;;;;;5023832;28;20045;-75
2023/04/23 09:16:09;;;;;;;10.25;3.70;;;;;;;;;;5035162;28;21043;-74
2023/04/23 09:18:36;;;;;;;10.45;3.83;;;;;;;;;;5020680;28;20563;-78
2023/04/23 09:21:03;;;;;;;8.60;3.80;;;;;;;;;;5025116;28;20053;-76
2023/04/23 09:23:30;;;;;;;15.15;3.88;;;;;;;;;;5022416;28;20209;-76
2023/04/23 09:25:57;;;;;;;11.15;3.72;;;;;;;;;;5014057;28;20064;-77
2023/04/23 09:28:33;;;;;;;10.27;4.07;;;;;;;;;;5002605;28;20060;-76
2023/04/23 09:30:59;;;;;;;10.23;3.28;;;;;;;;;;5017843;28;20485;-76
2023/04/23 09:33:26;;;;;;;12.48;3.53;;;;;;;;;;5022393;28;20057;-77
2023/04/23 09:35:53;;;;;;;10.15;3.75;;;;;;;;;;5023271;28;20050;-76
2023/04/23 09:38:19;;;;;;;10.13;3.38;;;;;;;;;;5025128;28;20057;-76
2023/04/23 09:40:46;;;;;;;9.10;3.08;;;;;;;;;;5025200;28;20172;-76
2023/04/23 09:43:12;;;;;;;8.32;3.20;;;;;;;;;;5005012;28;20985;-78
2023/04/23 09:45:50;;;;;;;9.82;3.88;;;;;;;;;;5006341;28;20464;-78
2023/04/23 09:48:17;;;;;;;12.75;4.05;;;;;;;;;;5007882;28;20037;-78
2023/04/23 09:50:43;;;;;;;11.07;3.88;;;;;;;;;;5013100;28;20057;-78
2023/04/23 09:53:12;;;;;;;9.50;3.65;;;;;;;;;;5028760;28;20057;-78
2023/04/23 09:55:40;;;;;;;10.20;3.20;;;;;;;;;;5036938;28;20053;-78
2023/04/23 09:58:14;;;;;;;10.00;2.92;;;;;;;;;;5025982;28;20058;-76
2023/04/23 10:00:41;;;;;;;8.20;3.03;;;;;;;;;;5021224;28;20086;-76
2023/04/23 10:03:08;;;;;;;12.75;3.50;;;;;;;;;;5013274;28;20229;-76
2023/04/23 10:05:42;;;;;;;9.65;3.72;;;;;;;;;;5023534;28;20054;-76
2023/04/23 10:08:12;;;;;;;9.05;3.55;;;;;;;;;;5024264;28;20058;-77
2023/04/23 10:10:39;;;;;;;8.32;2.70;;;;;;;;;;5025734;28;20058;-77
2023/04/23 10:13:25;;;;;;;7.57;2.67;;;;;;;;;;5036682;28;20073;-76
2023/04/23 10:15:52;;;;;;;7.75;2.58;;;;;;;;;;5024006;28;20054;-77
2023/04/23 10:18:19;;;;;;;8.65;2.30;;;;;;;;;;5025080;28;20109;-77
2023/04/23 10:20:47;;;;;;;8.40;2.63;;;;;;;;;;5025937;28;20141;-76
2023/04/23 10:23:14;;;;;;;9.23;3.20;;;;;;;;;;5023901;28;20169;-76
2023/04/23 10:25:41;;;;;;;8.25;2.85;;;;;;;;;;5025262;28;20061;-76
2023/04/23 10:28:10;;;;;;;9.10;2.88;;;;;;;;;;5025524;28;20073;-76
2023/04/23 10:30:37;;;;;;;7.75;2.40;;;;;;;;;;5022048;28;20060;-76
2023/04/23 10:33:03;;;;;;;9.43;1.95;;;;;;;;;;5024951;28;20050;-76
2023/04/23 10:35:34;;;;;;;6.55;1.90;;;;;;;;;;5021108;28;20058;-76
2023/04/23 10:38:01;;;;;;;7.15;2.40;;;;;;;;;;5036864;28;21081;-76
2023/04/23 10:40:29;;;;;;;8.40;2.10;;;;;;;;;;5024457;28;20136;-76
2023/04/23 10:42:56;;;;;;;8.10;2.30;;;;;;;;;;5020539;28;20054;-76
2023/04/23 10:45:22;;;;;;;10.07;2.40;;;;;;;;;;5019324;28;20061;-76
2023/04/23 10:47:52;;;;;;;8.52;2.17;;;;;;;;;;5026277;28;20154;-76
2023/04/23 10:50:21;;;;;;;8.38;2.40;;;;;;;;;;5006276;28;20157;-76
2023/04/23 10:52:55;;;;;;;8.77;2.20;;;;;;;;;;5006138;28;20137;-76
2023/04/23 10:55:23;;;;;;;5.70;1.77;;;;;;;;;;5012393;28;20501;-76
2023/04/23 10:57:59;;;;;;;5.80;1.90;;;;;;;;;;5019461;28;20058;-76
2023/04/23 11:00:28;;;;;;;7.55;1.90;;;;;;;;;;5015869;28;20056;-76
2023/04/23 11:02:54;;;;;;;7.00;2.10;;;;;;;;;;5045724;28;20573;-76
2023/04/23 11:05:24;;;;;;;6.10;1.88;;;;;;;;;;5025308;28;20140;-76
2023/04/23 11:08:04;;;;;;;8.20;1.95;;;;;;;;;;5022595;28;21039;-76
2023/04/23 11:10:49;;;;;;;5.30;1.60;;;;;;;;;;5026947;28;20050;-78
2023/04/23 11:13:19;;;;;;;8.50;1.48;;;;;;;;;;5021870;28;20516;-78
2023/04/23 11:15:45;;;;;;;8.63;1.65;;;;;;;;;;5024856;28;20052;-76
2023/04/23 11:18:12;;;;;;;5.68;1.50;;;;;;;;;;5017512;28;20057;-78
2023/04/23 11:20:39;;;;;;;8.07;1.70;;;;;;;;;;5039781;28;20038;-78
2023/04/23 11:23:07;;;;;;;7.68;2.17;;;;;;;;;;5023621;28;20519;-78
2023/04/23 11:25:34;;;;;;;6.90;1.48;;;;;;;;;;5020522;28;20060;-78
2023/04/23 11:28:00;;;;;;;6.25;1.77;;;;;;;;;;5037873;28;20085;-78
2023/04/23 11:30:30;;;;;;;7.05;1.40;;;;;;;;;;5014706;28;20066;-78
2023/04/23 11:32:58;;;;;;;8.90;1.90;;;;;;;;;;5032096;28;20058;-76
2023/04/23 11:35:36;;;;;;;9.13;1.73;;;;;;;;;;5034814;28;20053;-75
2023/04/23 11:38:06;;;;;;;6.32;1.35;;;;;;;;;;5034068;28;20081;-76
2023/04/23 11:40:33;;;;;;;5.68;1.30;;;;;;;;;;5022780;28;20509;-75
2023/04/23 11:43:03;;;;;;;9.32;1.75;;;;;;;;;;5025951;28;20579;-76
2023/04/23 11:45:29;;;;;;;9.57;1.67;;;;;;;;;;5044914;28;20147;-76
2023/04/23 11:47:57;;;;;;;5.65;1.50;;;;;;;;;;5028631;28;20054;-75
2023/04/23 11:50:28;;;;;;;6.32;1.30;;;;;;;;;;5023020;28;20057;-76
2023/04/23 11:52:55;;;;;;;5.85;1.60;;;;;;;;;;5025934;28;20054;-76
2023/04/23 11:55:22;;;;;;;7.65;1.27;;;;;;;;;;5035725;28;20136;-76
2023/04/23 11:57:49;;;;;;;8.25;1.70;;;;;;;;;;5025085;28;20062;-75
2023/04/23 12:00:16;;;;;;;4.68;1.40;;;;;;;;;;5032812;28;20062;-76
2023/04/23 12:02:49;;;;;;;6.28;1.35;;;;;;;;;;5022323;28;20058;-76
2023/04/23 12:05:18;;;;;;;7.05;1.48;;;;;;;;;;5017476;28;20604;-75
2023/04/23 12:07:47;;;;;;;7.28;1.88;;;;;;;;;;5019219;28;20455;-76
2023/04/23 12:10:17;;;;;;;6.38;1.30;;;;;;;;;;5024950;28;20092;-76
2023/04/23 12:12:47;;;;;;;6.97;1.40;;;;;;;;;;5030427;28;20062;-75
2023/04/23 12:15:14;;;;;;;7.93;1.70;;;;;;;;;;5010411;28;20046;-76
2023/04/23 12:17:40;;;;;;;5.03;1.48;;;;;;;;;;5015069;28;20056;-76
2023/04/23 12:20:12;;;;;;;6.43;1.35;;;;;;;;;;5010813;28;20477;-76
2023/04/23 12:22:38;;;;;;;6.38;1.80;;;;;;;;;;5019594;28;20054;-75
2023/04/23 12:25:07;;;;;;;5.35;1.38;;;;;;;;;;5028735;28;20061;-76
2023/04/23 12:27:37;;;;;;;5.80;1.58;;;;;;;;;;5008386;28;20050;-76
2023/04/23 12:30:04;;;;;;;5.07;1.33;;;;;;;;;;5008692;28;20141;-75
2023/04/23 12:32:33;;;;;;;7.78;1.67;;;;;;;;;;5034146;28;20069;-76
2023/04/23 12:34:59;;;;;;;7.28;1.40;;;;;;;;;;5015968;28;20061;-76
2023/04/23 12:37:27;;;;;;;8.55;1.70;;;;;;;;;;5011573;28;20046;-76
2023/04/23 12:39:55;;;;;;;7.05;1.63;;;;;;;;;;5014276;28;20046;-77
2023/04/23 12:42:22;;;;;;;7.72;1.58;;;;;;;;;;5012931;28;20080;-77
2023/04/23 12:44:50;;;;;;;7.25;1.98;;;;;;;;;;5014862;28;20062;-76
2023/04/23 12:47:19;;;;;;;7.07;1.60;;;;;;;;;;5020854;28;20137;-76
2023/04/23 12:49:48;;;;;;;6.15;1.58;;;;;;;;;;5034673;28;20059;-76
2023/04/23 12:52:15;;;;;;;6.47;1.52;;;;;;;;;;5017554;28;20055;-76
2023/04/23 12:54:43;;;;;;;7.18;1.50;;;;;;;;;;5013315;28;20056;-75
2023/04/23 12:57:11;;;;;;;6.93;1.80;;;;;;;;;;5041675;28;20134;-75
2023/04/23 12:59:37;;;;;;;6.72;1.40;;;;;;;;;;5020968;28;20608;-75
2023/04/23 13:02:05;;;;;;;6.97;1.58;;;;;;;;;;5019312;28;20508;-76
2023/04/23 13:04:34;;;;;;;4.00;1.38;;;;;;;;;;5017963;28;20057;-75
2023/04/23 13:07:01;;;;;;;5.03;1.42;;;;;;;;;;5013969;28;20051;-75
2023/04/23 13:09:27;;;;;;;5.55;1.42;;;;;;;;;;5007771;28;20088;-76
2023/04/23 13:11:54;;;;;;;4.25;1.40;;;;;;;;;;5015946;28;20511;-76
2023/04/23 13:14:21;;;;;;;4.13;1.50;;;;;;;;;;5024133;28;20152;-75
2023/04/23 13:16:47;;;;;;;5.03;1.42;;;;;;;;;;5024254;28;20070;-75
2023/04/23 13:19:15;;;;;;;5.65;1.48;;;;;;;;;;5019468;28;20163;-75
2023/04/23 13:21:42;;;;;;;5.50;1.55;;;;;;;;;;5015906;28;20057;-75
2023/04/23 13:24:09;;;;;;;7.57;2.05;;;;;;;;;;5006268;28;20054;-75
2023/04/23 13:26:36;;;;;;;5.43;1.67;;;;;;;;;;5007409;28;21030;-75
2023/04/23 13:29:02;;;;;;;4.72;1.30;;;;;;;;;;5021018;28;20060;-77
2023/04/23 13:31:28;;;;;;;6.18;1.27;;;;;;;;;;5017924;28;20129;-77
2023/04/23 13:33:55;;;;;;;6.78;2.45;;;;;;;;;;5019777;28;20807;-77
2023/04/23 13:36:21;;;;;;;11.60;5.60;;;;;;;;;;5010574;28;20053;-77
2023/04/23 13:38:48;;;;;;;5.57;1.65;;;;;;;;;;5009757;28;20069;-77
2023/04/23 13:41:14;;;;;;;10.85;5.00;;;;;;;;;;5017667;28;20541;-77
2023/04/23 13:43:41;;;;;;;4.13;1.40;;;;;;;;;;5014617;28;20061;-77
2023/04/23 13:46:07;;;;;;;7.22;1.48;;;;;;;;;;5021520;28;20512;-77
2023/04/23 13:48:34;;;;;;;6.45;1.20;;;;;;;;;;5023495;28;20054;-77
2023/04/23 13:51:00;;;;;;;5.20;1.40;;;;;;;;;;5026856;28;20109;-75
2023/04/23 13:53:27;;;;;;;3.90;1.10;;;;;;;;;;5018535;28;21083;-75
2023/04/23 13:55:54;;;;;;;4.75;1.42;;;;;;;;;;5047355;28;20145;-75
2023/04/23 13:58:21;;;;;;;5.82;1.10;;;;;;;;;;5011803;28;20137;-75
2023/04/23 14:00:47;;;;;;;4.63;1.30;;;;;;;;;;5011423;28;20758;-75
2023/04/23 14:03:14;;;;;;;9.15;1.65;;;;;;;;;;5028947;28;20147;-75
2023/04/23 14:05:40;;;;;;;5.53;1.63;;;;;;;;;;5006904;28;20163;-75
2023/04/23 14:08:07;;;;;;;5.68;1.30;;;;;;;;;;5021435;28;20054;-75
2023/04/23 14:10:33;;;;;;;5.20;1.38;;;;;;;;;;5031330;28;20058;-74
2023/04/23 14:13:01;;;;;;;6.57;1.85;;;;;;;;;;5015868;28;20529;-75
2023/04/23 14:15:27;;;;;;;5.90;1.40;;;;;;;;;;5010065;28;20146;-75
2023/04/23 14:17:55;;;;;;;4.90;1.27;;;;;;;;;;5022103;28;20061;-75
2023/04/23 14:20:21;;;;;;;6.57;1.40;;;;;;;;;;5016077;28;20057;-75
2023/04/23 14:22:49;;;;;;;5.47;1.77;;;;;;;;;;5014233;28;20050;-74
2023/04/23 14:25:22;;;;;;;4.13;1.20;;;;;;;;;;5016010;28;20092;-75